createdAt,value
2023-02-23T00:01:56.004Z,101355.38
2023-02-23T00:04:29.442Z,101359.72
2023-02-23T00:07:10.826Z,101361.56
2023-02-23T00:09:37.181Z,101363.47
2023-02-23T00:12:09.079Z,101364.28
2023-02-23T00:14:38.431Z,101358.06
2023-02-23T00:17:10.943Z,101374.28
2023-02-23T00:19:37.749Z,101361.00
2023-02-23T00:22:04.239Z,101358.28
2023-02-23T00:24:31.081Z,101361.84
2023-02-23T00:27:06.414Z,101350.44
2023-02-23T00:29:38.894Z,101353.16
2023-02-23T00:32:05.625Z,101346.91
2023-02-23T00:34:35.772Z,101351.50
2023-02-23T00:37:04.575Z,101347.16
2023-02-23T00:39:30.980Z,101346.09
2023-02-23T00:42:02.722Z,101351.50
2023-02-23T00:44:29.739Z,101352.56
2023-02-23T00:46:56.103Z,101347.97
2023-02-23T00:49:23.473Z,101349.84
2023-02-23T00:51:54.088Z,101350.66
2023-02-23T00:54:22.160Z,101351.97
2023-02-23T00:56:52.001Z,101350.09
2023-02-23T00:59:38.361Z,101353.84
2023-02-23T01:02:08.960Z,101353.03
2023-02-23T01:04:35.346Z,101355.72
2023-02-23T01:07:04.126Z,101350.34
2023-02-23T01:09:30.536Z,101353.25
2023-02-23T01:12:01.685Z,101349.50
2023-02-23T01:14:34.196Z,101357.84
2023-02-23T01:17:01.607Z,101347.28
2023-02-23T01:19:29.141Z,101349.16
2023-02-23T01:22:03.639Z,101352.94
2023-02-23T01:24:30.112Z,101348.59
2023-02-23T01:26:56.651Z,101353.41
2023-02-23T01:29:29.452Z,101356.09
2023-02-23T01:31:56.100Z,101351.75
2023-02-23T01:34:23.388Z,101354.69
2023-02-23T01:36:50.850Z,101355.50
2023-02-23T01:39:20.230Z,101360.06
2023-02-23T01:41:46.734Z,101360.34
2023-02-23T01:44:20.064Z,101365.72
2023-02-23T01:47:06.234Z,101359.28
2023-02-23T01:49:34.690Z,101364.66
2023-02-23T01:52:42.128Z,101358.44
2023-02-23T01:55:13.047Z,101363.03
2023-02-23T01:57:41.654Z,101359.50
2023-02-23T02:00:15.250Z,101357.63
2023-02-23T02:02:41.844Z,101357.63
2023-02-23T02:05:14.097Z,101359.50
2023-02-23T02:07:47.191Z,101356.00
2023-02-23T02:10:13.798Z,101365.72
2023-02-23T02:12:54.610Z,101362.19
2023-02-23T02:15:38.678Z,101357.84
2023-02-23T02:18:53.597Z,101356.00
2023-02-23T02:21:47.852Z,101353.28
2023-02-23T02:24:35.782Z,101363.03
2023-02-23T02:27:21.249Z,101361.38
2023-02-23T02:30:18.738Z,101365.72
2023-02-23T02:33:19.222Z,101361.38
2023-02-23T02:36:08.217Z,101367.84
2023-02-23T02:38:54.273Z,101367.00
2023-02-23T02:41:51.288Z,101365.38
2023-02-23T02:44:23.782Z,101361.84
2023-02-23T02:47:00.984Z,101363.50
2023-02-23T02:49:48.982Z,101365.63
2023-02-23T02:52:37.765Z,101361.03
2023-02-23T02:55:14.894Z,101363.97
2023-02-23T02:57:53.375Z,101359.63
2023-02-23T03:00:53.570Z,101356.09
2023-02-23T03:03:54.333Z,101352.59
2023-02-23T03:06:56.223Z,101360.44
2023-02-23T03:10:04.021Z,101355.28
2023-02-23T03:13:20.538Z,101355.50
2023-02-23T03:16:35.217Z,101363.59
2023-02-23T03:19:47.507Z,101362.81
2023-02-23T03:22:43.140Z,101361.16
2023-02-23T03:25:51.167Z,101359.53
2023-02-23T03:28:48.910Z,101360.00
2023-02-23T03:31:53.639Z,101361.63
2023-02-23T03:34:45.595Z,101367.25
2023-02-23T03:37:38.093Z,101363.50
2023-02-23T03:40:39.122Z,101368.56
2023-02-23T03:43:31.002Z,101363.97
2023-02-23T03:46:23.433Z,101369.63
2023-02-23T03:49:14.578Z,101380.41
2023-02-23T03:52:03.221Z,101373.38
2023-02-23T03:55:12.129Z,101383.09
2023-02-23T03:58:00.254Z,101385.81
2023-02-23T04:00:51.866Z,101381.94
2023-02-23T04:03:39.556Z,101382.19
2023-02-23T04:06:41.049Z,101384.88
2023-02-23T04:09:39.617Z,101384.03
2023-02-23T04:12:52.214Z,101388.38
2023-02-23T04:15:38.943Z,101393.19
2023-02-23T04:18:14.206Z,101387.22
2023-02-23T04:20:41.871Z,101398.00
2023-02-23T04:23:14.518Z,101392.59
2023-02-23T04:25:48.529Z,101388.84
2023-02-23T04:28:23.744Z,101388.03
2023-02-23T04:30:55.342Z,101393.44
2023-02-23T04:33:22.679Z,101391.78
2023-02-23T04:35:58.437Z,101401.16
2023-02-23T04:38:24.859Z,101399.31
2023-02-23T04:41:02.476Z,101401.41
2023-02-23T04:43:31.028Z,101393.06
2023-02-23T04:45:57.603Z,101393.06
2023-02-23T04:48:26.728Z,101399.06
2023-02-23T04:50:57.547Z,101407.16
2023-02-23T04:53:24.051Z,101402.59
2023-02-23T04:55:57.716Z,101413.59
2023-02-23T04:58:24.258Z,101414.44
2023-02-23T05:00:50.821Z,101424.19
2023-02-23T05:03:23.433Z,101417.94
2023-02-23T05:05:49.889Z,101417.13
2023-02-23T05:08:21.337Z,101423.34
2023-02-23T05:10:55.839Z,101428.75
2023-02-23T05:13:22.259Z,101422.28
2023-02-23T05:15:59.101Z,101418.53
2023-02-23T05:18:26.428Z,101421.22
2023-02-23T05:21:12.566Z,101429.31
2023-02-23T05:23:41.130Z,101428.28
2023-02-23T05:26:10.098Z,101435.31
2023-02-23T05:28:38.606Z,101434.25
2023-02-23T05:31:07.478Z,101442.34
2023-02-23T05:33:35.490Z,101434.03
2023-02-23T05:36:05.470Z,101438.84
2023-02-23T05:38:46.306Z,101424.50
2023-02-23T05:41:16.876Z,101435.31
2023-02-23T05:43:52.387Z,101434.25
2023-02-23T05:46:22.726Z,101433.44
2023-02-23T05:49:01.345Z,101441.28
2023-02-23T05:51:33.943Z,101438.59
2023-02-23T05:54:01.238Z,101436.94
2023-02-23T05:56:43.068Z,101429.91
2023-02-23T05:59:14.211Z,101436.94
2023-02-23T06:01:40.985Z,101436.94
2023-02-23T06:04:23.376Z,101443.41
2023-02-23T06:06:50.093Z,101448.00
2023-02-23T06:09:18.554Z,101446.34
2023-02-23T06:11:47.051Z,101455.25
2023-02-23T06:14:13.729Z,101448.81
2023-02-23T06:16:45.369Z,101451.50
2023-02-23T06:19:11.984Z,101447.75
2023-02-23T06:21:41.107Z,101450.44
2023-02-23T06:24:07.595Z,101458.53
2023-02-23T06:26:35.242Z,101457.94
2023-02-23T06:29:02.700Z,101455.72
2023-02-23T06:31:29.282Z,101457.81
2023-02-23T06:33:57.824Z,101465.34
2023-02-23T06:36:25.239Z,101464.75
2023-02-23T06:38:57.048Z,101470.38
2023-02-23T06:41:27.783Z,101474.94
2023-02-23T06:43:55.624Z,101470.84
2023-02-23T06:46:23.016Z,101480.78
2023-02-23T06:48:49.449Z,101474.34
2023-02-23T06:51:18.246Z,101478.69
2023-02-23T06:53:44.792Z,101485.72
2023-02-23T06:56:13.948Z,101484.09
2023-02-23T06:58:43.045Z,101484.09
2023-02-23T07:01:13.960Z,101491.72
2023-02-23T07:03:40.394Z,101496.06
2023-02-23T07:06:07.285Z,101493.81
2023-02-23T07:08:40.002Z,101496.53
2023-02-23T07:11:15.815Z,101491.13
2023-02-23T07:13:42.684Z,101499.81
2023-02-23T07:16:09.294Z,101508.50
2023-02-23T07:18:36.906Z,101510.16
2023-02-23T07:21:03.423Z,101515.09
2023-02-23T07:23:31.460Z,101520.47
2023-02-23T07:26:01.032Z,101525.06
2023-02-23T07:28:28.773Z,101520.94
2023-02-23T07:30:58.307Z,101525.28
2023-02-23T07:33:25.243Z,101527.75
2023-02-23T07:35:53.748Z,101537.25
2023-02-23T07:38:20.160Z,101537.84
2023-02-23T07:40:46.553Z,101542.19
2023-02-23T07:43:14.004Z,101548.19
2023-02-23T07:45:47.570Z,101549.84
2023-02-23T07:48:14.474Z,101549.63
2023-02-23T07:50:42.953Z,101545.03
2023-02-23T07:53:09.764Z,101542.31
2023-02-23T07:55:56.167Z,101546.44
2023-02-23T07:58:22.602Z,101552.66
2023-02-23T08:00:50.096Z,101558.66
2023-02-23T08:03:16.468Z,101566.75
2023-02-23T08:05:44.853Z,101566.28
2023-02-23T08:08:12.021Z,101566.28
2023-02-23T08:10:39.231Z,101564.19
2023-02-23T08:13:06.051Z,101562.28
2023-02-23T08:15:32.672Z,101569.13
2023-02-23T08:17:59.073Z,101570.31
2023-02-23T08:20:25.541Z,101566.56
2023-02-23T08:22:55.767Z,101569.00
2023-02-23T08:25:22.542Z,101570.66
2023-02-23T08:27:52.054Z,101579.13
2023-02-23T08:30:19.889Z,101577.59
2023-02-23T08:32:46.415Z,101575.50
2023-02-23T08:35:13.044Z,101582.06
2023-02-23T08:37:39.670Z,101591.38
2023-02-23T08:40:06.504Z,101582.19
2023-02-23T08:42:32.897Z,101589.84
2023-02-23T08:45:01.363Z,101594.19
2023-02-23T08:47:28.045Z,101598.53
2023-02-23T08:49:54.409Z,101600.78
2023-02-23T08:52:21.512Z,101608.88
2023-02-23T08:54:48.047Z,101603.47
2023-02-23T08:57:14.572Z,101599.94
2023-02-23T08:59:41.612Z,101606.16
2023-02-23T09:02:12.596Z,101606.16
2023-02-23T09:04:41.841Z,101614.28
2023-02-23T09:07:13.069Z,101614.28
2023-02-23T09:09:39.690Z,101605.13
2023-02-23T09:12:06.256Z,101617.06
2023-02-23T09:14:32.672Z,101621.41
2023-02-23T09:16:59.175Z,101620.38
2023-02-23T09:19:27.550Z,101620.97
2023-02-23T09:21:54.286Z,101628.00
2023-02-23T09:24:22.120Z,101620.97
2023-02-23T09:26:49.200Z,101629.06
2023-02-23T09:29:15.825Z,101629.06
2023-02-23T09:31:43.678Z,101637.53
2023-02-23T09:34:12.627Z,101638.59
2023-02-23T09:36:39.129Z,101641.28
2023-02-23T09:39:05.660Z,101644.00
2023-02-23T09:41:56.014Z,101640.47
2023-02-23T09:44:22.315Z,101637.75
2023-02-23T09:47:21.278Z,101646.44
2023-02-23T09:49:50.947Z,101650.22
2023-02-23T09:52:22.328Z,101648.09
2023-02-23T09:54:48.897Z,101642.69
2023-02-23T09:57:19.987Z,101641.03
2023-02-23T09:59:46.585Z,101638.94
2023-02-23T10:02:19.377Z,101638.47
2023-02-23T10:04:48.860Z,101648.00
2023-02-23T10:07:30.053Z,101641.28
2023-02-23T10:10:21.970Z,101643.78
2023-02-23T10:13:04.250Z,101652.22
2023-02-23T10:15:56.105Z,101653.28
2023-02-23T10:18:46.788Z,101657.03
2023-02-23T10:21:19.312Z,101650.59
2023-02-23T10:23:56.539Z,101644.13
2023-02-23T10:26:26.585Z,101653.88
2023-02-23T10:28:56.008Z,101648.47
2023-02-23T10:31:43.008Z,101654.94
2023-02-23T10:34:18.142Z,101663.03
2023-02-23T10:36:52.589Z,101663.03
2023-02-23T10:39:19.287Z,101669.03
2023-02-23T10:41:46.597Z,101674.44
2023-02-23T10:44:21.269Z,101667.97
2023-02-23T10:46:55.688Z,101664.22
2023-02-23T10:49:30.373Z,101666.13
2023-02-23T10:52:02.998Z,101681.03
2023-02-23T10:54:45.657Z,101674.22
2023-02-23T10:57:27.882Z,101679.97
2023-02-23T11:00:15.937Z,101675.63
2023-02-23T11:02:51.823Z,101679.16
2023-02-23T11:05:50.491Z,101677.50
2023-02-23T11:08:22.533Z,101677.06
2023-02-23T11:11:09.395Z,101675.16
2023-02-23T11:13:44.550Z,101667.88
2023-02-23T11:16:30.437Z,101665.53
2023-02-23T11:18:58.707Z,101665.31
2023-02-23T11:21:39.011Z,101667.16
2023-02-23T11:24:19.309Z,101666.69
2023-02-23T11:26:48.762Z,101667.88
2023-02-23T11:29:25.910Z,101670.38
2023-02-23T11:31:58.796Z,101672.69
2023-02-23T11:34:32.249Z,101679.63
2023-02-23T11:37:08.299Z,101681.28
2023-02-23T11:39:35.145Z,101685.03
2023-02-23T11:42:20.887Z,101688.78
2023-02-23T11:45:06.090Z,101684.44
2023-02-23T11:47:38.689Z,101680.56
2023-02-23T11:50:07.112Z,101679.97
2023-02-23T11:52:36.446Z,101673.63
2023-02-23T11:55:07.072Z,101681.75
2023-02-23T11:57:35.694Z,101685.72
2023-02-23T12:00:10.896Z,101677.84
2023-02-23T12:03:07.952Z,101682.41
2023-02-23T12:05:34.534Z,101681.59
2023-02-23T12:08:15.972Z,101682.41
2023-02-23T12:10:47.600Z,101679.97
2023-02-23T12:13:27.891Z,101684.53
2023-02-23T12:16:07.189Z,101692.03
2023-02-23T12:18:40.256Z,101680.19
2023-02-23T12:21:23.959Z,101684.53
2023-02-23T12:23:54.953Z,101689.94
2023-02-23T12:26:23.426Z,101694.28
2023-02-23T12:28:58.662Z,101684.06
2023-02-23T12:31:34.998Z,101681.94
2023-02-23T12:34:18.293Z,101683.59
2023-02-23T12:36:55.989Z,101683.13
2023-02-23T12:39:35.026Z,101676.81
2023-02-23T12:42:11.729Z,101668.47
2023-02-23T12:44:47.000Z,101672.56
2023-02-23T12:47:24.845Z,101680.00
2023-02-23T12:50:07.533Z,101676.00
2023-02-23T12:52:37.283Z,101685.53
2023-02-23T12:55:09.444Z,101678.22
2023-02-23T12:58:04.224Z,101679.53
2023-02-23T13:00:58.335Z,101683.63
2023-02-23T13:03:52.712Z,101693.97
2023-02-23T13:06:36.928Z,101695.63
2023-02-23T13:09:22.110Z,101674.84
2023-02-23T13:11:56.756Z,101681.09
2023-02-23T13:14:39.923Z,101671.06
2023-02-23T13:17:25.751Z,101667.78
2023-02-23T13:19:58.891Z,101662.00
2023-02-23T13:22:46.373Z,101667.41
2023-02-23T13:25:33.944Z,101658.25
2023-02-23T13:28:01.992Z,101661.53
2023-02-23T13:30:37.062Z,101663.91
2023-02-23T13:33:14.575Z,101662.59
2023-02-23T13:35:42.319Z,101659.69
2023-02-23T13:38:25.799Z,101654.41
2023-02-23T13:41:30.133Z,101658.28
2023-02-23T13:44:07.924Z,101660.50
2023-02-23T13:46:42.621Z,101668.63
2023-02-23T13:49:51.141Z,101668.63
2023-02-23T13:52:31.434Z,101676.72
2023-02-23T13:55:03.774Z,101669.91
2023-02-23T13:57:37.197Z,101677.69
2023-02-23T14:00:04.482Z,101674.13
2023-02-23T14:02:37.643Z,101676.03
2023-02-23T14:05:30.817Z,101672.25
2023-02-23T14:08:02.406Z,101674.13
2023-02-23T14:10:37.945Z,101679.78
2023-02-23T14:13:13.486Z,101677.09
2023-02-23T14:15:44.347Z,101680.25
2023-02-23T14:18:25.186Z,101681.78
2023-02-23T14:21:18.568Z,101678.03
2023-02-23T14:24:02.229Z,101684.25
2023-02-23T14:26:28.567Z,101692.13
2023-02-23T14:29:17.075Z,101687.53
2023-02-23T14:32:03.609Z,101684.84
2023-02-23T14:34:47.593Z,101688.38
2023-02-23T14:37:27.940Z,101687.53
2023-02-23T14:39:57.324Z,101684.25
2023-02-23T14:42:27.034Z,101686.03
2023-02-23T14:44:55.210Z,101682.72
2023-02-23T14:47:27.329Z,101681.09
2023-02-23T14:50:01.437Z,101676.47
2023-02-23T14:52:41.436Z,101682.72
2023-02-23T14:55:10.841Z,101685.19
2023-02-23T14:57:39.349Z,101676.84
2023-02-23T15:00:15.130Z,101680.59
2023-02-23T15:02:55.488Z,101676.84
2023-02-23T15:05:25.482Z,101686.03
2023-02-23T15:07:54.019Z,101692.47
2023-02-23T15:10:28.281Z,101685.88
2023-02-23T15:12:55.841Z,101689.41
2023-02-23T15:15:27.201Z,101689.03
2023-02-23T15:17:58.078Z,101694.44
2023-02-23T15:20:32.716Z,101696.56
2023-02-23T15:23:02.795Z,101703.38
2023-02-23T15:25:40.248Z,101708.03
2023-02-23T15:28:29.524Z,101704.41
2023-02-23T15:31:00.983Z,101700.75
2023-02-23T15:33:30.984Z,101699.56
2023-02-23T15:36:03.656Z,101707.06
2023-02-23T15:38:43.594Z,101701.91
2023-02-23T15:41:23.237Z,101709.41
2023-02-23T15:43:49.742Z,101710.69
2023-02-23T15:46:24.541Z,101708.44
2023-02-23T15:48:53.751Z,101718.44
2023-02-23T15:51:32.694Z,101719.72
2023-02-23T15:54:01.524Z,101720.81
2023-02-23T15:56:30.472Z,101725.59
2023-02-23T15:59:02.658Z,101732.28
2023-02-23T16:01:31.580Z,101724.03
2023-02-23T16:04:13.039Z,101728.50
2023-02-23T16:06:52.806Z,101726.72
2023-02-23T16:09:24.039Z,101740.41
2023-02-23T16:11:54.604Z,101735.72
2023-02-23T16:14:22.652Z,101733.47
2023-02-23T16:17:08.510Z,101728.53
2023-02-23T16:19:40.717Z,101731.09
2023-02-23T16:22:21.571Z,101730.69
2023-02-23T16:24:58.046Z,101737.38
2023-02-23T16:27:26.612Z,101737.25
2023-02-23T16:30:06.659Z,101738.28
2023-02-23T16:32:45.351Z,101739.59
2023-02-23T16:35:19.519Z,101735.00
2023-02-23T16:37:58.192Z,101746.25
2023-02-23T16:40:25.305Z,101739.19
2023-02-23T16:42:53.354Z,101746.69
2023-02-23T16:45:21.258Z,101751.28
2023-02-23T16:47:48.373Z,101750.44
2023-02-23T16:50:23.048Z,101755.84
2023-02-23T16:52:54.419Z,101755.22
2023-02-23T16:55:26.394Z,101753.59
2023-02-23T16:58:02.377Z,101755.22
2023-02-23T17:00:31.620Z,101761.69
2023-02-23T17:03:00.663Z,101765.44
2023-02-23T17:05:29.161Z,101758.38
2023-02-23T17:07:58.095Z,101762.72
2023-02-23T17:10:30.547Z,101765.44
2023-02-23T17:12:58.535Z,101765.66
2023-02-23T17:15:29.098Z,101769.63
2023-02-23T17:17:56.376Z,101772.56
2023-02-23T17:20:25.840Z,101777.56
2023-02-23T17:22:55.222Z,101781.75
2023-02-23T17:25:24.342Z,101781.75
2023-02-23T17:27:51.133Z,101779.50
2023-02-23T17:30:17.798Z,101782.88
2023-02-23T17:32:44.480Z,101783.69
2023-02-23T17:35:11.394Z,101782.03
2023-02-23T17:37:38.036Z,101790.13
2023-02-23T17:40:09.778Z,101788.13
2023-02-23T17:42:36.259Z,101796.41
2023-02-23T17:45:06.313Z,101798.94
2023-02-23T17:47:34.355Z,101801.03
2023-02-23T17:50:01.699Z,101804.78
2023-02-23T17:52:28.798Z,101806.88
2023-02-23T17:54:55.633Z,101809.00
2023-02-23T17:57:23.209Z,101818.13
2023-02-23T17:59:49.843Z,101818.56
2023-02-23T18:02:20.519Z,101813.22
2023-02-23T18:04:48.374Z,101825.28
2023-02-23T18:07:15.512Z,101823.63
2023-02-23T18:09:42.048Z,101834.63
2023-02-23T18:12:08.845Z,101832.34
2023-02-23T18:14:35.639Z,101840.88
2023-02-23T18:17:01.992Z,101837.38
2023-02-23T18:19:28.453Z,101840.28
2023-02-23T18:21:56.030Z,101827.03
2023-02-23T18:24:27.429Z,101840.50
2023-02-23T18:27:00.529Z,101830.78
2023-02-23T18:29:32.018Z,101837.81
2023-02-23T18:31:59.973Z,101836.16
2023-02-23T18:34:28.705Z,101833.66
2023-02-23T18:37:02.167Z,101840.97
2023-02-23T18:39:31.041Z,101841.19
2023-02-23T18:41:57.929Z,101842.00
2023-02-23T18:44:24.382Z,101844.94
2023-02-23T18:46:50.827Z,101846.59
2023-02-23T18:49:20.721Z,101850.34
2023-02-23T18:51:47.886Z,101848.69
2023-02-23T18:54:16.896Z,101849.13
2023-02-23T18:56:45.145Z,101845.81
2023-02-23T18:59:12.257Z,101849.53
2023-02-23T19:01:39.090Z,101848.69
2023-02-23T19:04:08.038Z,101842.50
2023-02-23T19:06:35.185Z,101841.28
2023-02-23T19:09:04.157Z,101844.41
2023-02-23T19:11:33.656Z,101837.59
2023-02-23T19:14:06.260Z,101835.72
2023-02-23T19:16:34.878Z,101826.41
2023-02-23T19:19:03.560Z,101828.50
2023-02-23T19:21:36.295Z,101829.34
2023-02-23T19:24:05.418Z,101836.03
2023-02-23T19:26:33.596Z,101823.44
2023-02-23T19:29:00.652Z,101823.22
2023-02-23T19:31:28.852Z,101819.72
2023-02-23T19:33:57.482Z,101826.38
2023-02-23T19:36:29.655Z,101822.09
2023-02-23T19:39:06.133Z,101825.44
2023-02-23T19:41:33.998Z,101824.81
2023-02-23T19:44:00.555Z,101825.88
2023-02-23T19:46:27.678Z,101824.03
2023-02-23T19:48:54.583Z,101825.06
2023-02-23T19:51:21.668Z,101827.19
2023-02-23T19:53:48.498Z,101821.41
2023-02-23T19:56:16.605Z,101821.81
2023-02-23T19:58:46.478Z,101827.59
2023-02-23T20:01:16.956Z,101824.72
2023-02-23T20:03:45.338Z,101831.53
2023-02-23T20:06:13.526Z,101838.38
2023-02-23T20:08:41.518Z,101836.31
2023-02-23T20:11:08.394Z,101828.44
2023-02-23T20:13:35.628Z,101841.06
2023-02-23T20:16:04.037Z,101842.50
2023-02-23T20:18:30.534Z,101833.81
2023-02-23T20:20:56.879Z,101835.25
2023-02-23T20:23:23.286Z,101831.78
2023-02-23T20:25:49.695Z,101829.50
2023-02-23T20:28:16.133Z,101838.38
2023-02-23T20:30:48.825Z,101825.56
2023-02-23T20:33:15.486Z,101830.94
2023-02-23T20:35:42.369Z,101819.53
2023-02-23T20:38:08.886Z,101820.38
2023-02-23T20:40:35.492Z,101819.75
2023-02-23T20:43:01.858Z,101826.97
2023-02-23T20:45:28.418Z,101820.16
2023-02-23T20:47:55.613Z,101815.22
2023-02-23T20:50:25.553Z,101818.50
2023-02-23T20:52:52.004Z,101820.16
2023-02-23T20:55:18.908Z,101823.84
2023-02-23T20:57:47.344Z,101813.53
2023-02-23T21:00:22.118Z,101817.25
2023-02-23T21:02:55.263Z,101812.06
2023-02-23T21:05:31.608Z,101800.91
2023-02-23T21:08:04.050Z,101800.69
2023-02-23T21:10:36.373Z,101802.75
2023-02-23T21:13:12.001Z,101801.31
2023-02-23T21:15:40.710Z,101805.22
2023-02-23T21:18:10.136Z,101801.09
2023-02-23T21:20:40.377Z,101806.03
2023-02-23T21:23:07.888Z,101798.56
2023-02-23T21:25:35.343Z,101796.72
2023-02-23T21:28:05.814Z,101797.13
2023-02-23T21:30:32.213Z,101800.81
2023-02-23T21:33:00.142Z,101801.00
2023-02-23T21:35:26.866Z,101799.34
2023-02-23T21:37:53.364Z,101801.00
2023-02-23T21:40:22.094Z,101795.81
2023-02-23T21:42:49.632Z,101803.88
2023-02-23T21:45:17.494Z,101797.88
2023-02-23T21:47:45.970Z,101798.09
2023-02-23T21:50:16.633Z,101805.50
2023-02-23T21:52:45.408Z,101803.00
2023-02-23T21:55:21.315Z,101794.97
2023-02-23T21:57:48.125Z,101807.75
2023-02-23T22:00:16.318Z,101805.50
2023-02-23T22:02:46.245Z,101810.41
2023-02-23T22:05:14.466Z,101809.59
2023-02-23T22:07:41.431Z,101801.72
2023-02-23T22:10:11.110Z,101804.63
2023-02-23T22:12:37.514Z,101799.66
2023-02-23T22:15:09.249Z,101805.22
2023-02-23T22:17:38.544Z,101802.13
2023-02-23T22:20:07.261Z,101795.50
2023-02-23T22:22:36.183Z,101799.38
2023-02-23T22:25:07.489Z,101798.75
2023-02-23T22:27:33.870Z,101796.69
2023-02-23T22:30:01.833Z,101793.16
2023-02-23T22:32:32.691Z,101795.03
2023-02-23T22:35:00.298Z,101789.03
2023-02-23T22:37:31.533Z,101795.41
2023-02-23T22:40:16.708Z,101796.44
2023-02-23T22:42:49.762Z,101790.84
2023-02-23T22:45:18.872Z,101803.63
2023-02-23T22:47:45.403Z,101789.56
2023-02-23T22:50:14.004Z,101786.25
2023-02-23T22:52:40.773Z,101781.28
2023-02-23T22:55:07.981Z,101776.31
2023-02-23T22:57:34.355Z,101776.72
2023-02-23T23:00:04.905Z,101777.13
2023-02-23T23:02:36.089Z,101773.81
2023-02-23T23:05:08.863Z,101775.22
2023-02-23T23:07:35.426Z,101771.91
2023-02-23T23:10:09.198Z,101767.78
2023-02-23T23:12:38.104Z,101766.94
2023-02-23T23:15:05.342Z,101758.47
2023-02-23T23:17:35.856Z,101754.94
2023-02-23T23:20:11.798Z,101751.00
2023-02-23T23:22:45.534Z,101751.41
2023-02-23T23:25:15.699Z,101750.75
2023-02-23T23:27:44.828Z,101746.63
2023-02-23T23:30:12.839Z,101745.16
2023-02-23T23:32:40.687Z,101740.19
2023-02-23T23:35:10.961Z,101740.59
2023-02-23T23:37:39.798Z,101742.63
2023-02-23T23:40:14.172Z,101737.66
2023-02-23T23:42:45.829Z,101729.00
2023-02-23T23:45:19.072Z,101730.00
2023-02-23T23:47:46.645Z,101723.84
2023-02-23T23:50:15.604Z,101726.31
2023-02-23T23:52:45.946Z,101717.88
2023-02-23T23:55:15.131Z,101714.81
2023-02-23T23:57:42.183Z,101721.19
